Terminal Aerodrome Forecast
Issued by NWS

Home | Current Version | Previous Version | Text Only | Print | Product List | Glossary On
Versions: 1 2 3 4 5 6 7 8 9 10 11 12 13 14 15 16 17 18 19
704
FTUS42 TJSJ 300548
TAFJBQ
TAF
TJBQ 300548Z 3006/0106 00000KT P6SM -SHRA FEW025 SCT070 BKN120
     FM301330 07010KT P6SM VCSH SCT025 SCT050 SCT100
     FM301700 06012G18KT P6SM VCTS SCT022CB BKN040 BKN090
     FM302300 09008KT P6SM SCT025
      AMD NOT SKED TIL 301100=

USA.gov is the U.S. government's official web portal to all federal, state and local government web resources and services.